Time;durP1;ratioP1;P1;durP2;ratioP2;P2;SDS_P1;SDS_P2;PMS_P1;PMS_P2;Temp;Humidity;BMP_temperature;BMP_pressure;BME280_temperature;BME280_humidity;BME280_pressure;Samples;Min_cycle;Max_cycle;Signal;HPM_P1;HPM_P2
2021/01/27 00:01:12;;;;;;;6.10;4.93;;;1.50;99.90;;;;;;5032689;28;20331;-59
2021/01/27 00:03:40;;;;;;;4.60;4.20;;;1.50;99.90;;;;;;5032871;28;20223;-56
2021/01/27 00:06:07;;;;;;;6.10;4.30;;;1.50;99.90;;;;;;5032855;28;20238;-57
2021/01/27 00:08:34;;;;;;;4.70;4.20;;;1.50;99.90;;;;;;5032866;28;20300;-51
2021/01/27 00:11:01;;;;;;;5.32;4.72;;;1.50;99.90;;;;;;5032952;28;20204;-56
2021/01/27 00:13:28;;;;;;;6.22;4.97;;;1.50;99.90;;;;;;5032855;28;20247;-54
2021/01/27 00:15:55;;;;;;;5.23;4.60;;;1.50;99.90;;;;;;5032717;28;20248;-57
2021/01/27 00:18:23;;;;;;;4.60;4.20;;;1.40;99.90;;;;;;5032691;28;20217;-56
2021/01/27 00:20:50;;;;;;;4.88;4.30;;;1.50;99.90;;;;;;5032489;28;20219;-62
2021/01/27 00:23:17;;;;;;;4.70;3.97;;;1.60;99.90;;;;;;5032817;28;20216;-59
2021/01/27 00:25:44;;;;;;;5.78;4.30;;;1.50;99.90;;;;;;5032311;28;20776;-59
2021/01/27 00:28:11;;;;;;;6.33;4.33;;;1.50;99.90;;;;;;5032398;28;20734;-60
2021/01/27 00:30:40;;;;;;;6.23;4.40;;;1.50;99.90;;;;;;5032639;28;20240;-60
2021/01/27 00:33:10;;;;;;;6.78;4.93;;;1.50;99.90;;;;;;5032474;28;20255;-60
2021/01/27 00:35:40;;;;;;;7.83;4.57;;;1.50;99.90;;;;;;5032370;28;20209;-53
2021/01/27 00:38:11;;;;;;;5.53;4.80;;;1.50;99.90;;;;;;5032837;28;20262;-48
2021/01/27 00:40:39;;;;;;;7.70;4.30;;;1.50;99.90;;;;;;5032423;28;20746;-53
2021/01/27 00:43:06;;;;;;;4.38;3.97;;;1.50;99.90;;;;;;5031280;28;20640;-56
2021/01/27 00:45:33;;;;;;;5.50;4.85;;;1.50;99.90;;;;;;5032202;28;20230;-60
2021/01/27 00:48:00;;;;;;;7.03;5.07;;;1.40;99.90;;;;;;5032123;28;20263;-60
2021/01/27 00:50:27;;;;;;;4.20;3.73;;;1.40;99.90;;;;;;5031984;28;20209;-62
2021/01/27 00:52:55;;;;;;;6.55;4.55;;;1.40;99.90;;;;;;5032243;28;20259;-60
2021/01/27 00:55:25;;;;;;;4.77;4.37;;;1.50;99.90;;;;;;5032151;28;20209;-59
2021/01/27 00:57:52;;;;;;;5.28;4.43;;;1.50;99.90;;;;;;5031858;28;20248;-60
2021/01/27 01:00:22;;;;;;;5.97;4.70;;;1.50;99.90;;;;;;5031836;28;20339;-59
2021/01/27 01:02:50;;;;;;;4.93;4.35;;;1.50;99.90;;;;;;5031988;28;20662;-57
2021/01/27 01:05:21;;;;;;;5.15;4.47;;;1.50;99.90;;;;;;5031995;28;20268;-60
2021/01/27 01:07:48;;;;;;;7.65;4.88;;;1.50;99.90;;;;;;5031982;28;20695;-58
2021/01/27 01:10:20;;;;;;;5.07;4.30;;;1.50;99.90;;;;;;5032022;28;20292;-59
2021/01/27 01:12:48;;;;;;;5.35;4.85;;;1.50;99.90;;;;;;5032066;28;20219;-58
2021/01/27 01:15:16;;;;;;;7.72;4.60;;;1.40;99.90;;;;;;5031866;28;20287;-59
2021/01/27 01:17:43;;;;;;;5.35;4.32;;;1.40;99.90;;;;;;5031633;28;20300;-56
2021/01/27 01:20:14;;;;;;;5.53;5.00;;;1.40;99.90;;;;;;5017202;28;20217;-60
2021/01/27 01:22:43;;;;;;;6.80;4.60;;;1.40;99.90;;;;;;5012209;28;20228;-60
2021/01/27 01:25:11;;;;;;;4.85;4.10;;;1.40;99.90;;;;;;5011886;28;20256;-58
2021/01/27 01:27:40;;;;;;;5.57;4.03;;;1.40;99.90;;;;;;5011936;28;20253;-60
2021/01/27 01:30:11;;;;;;;6.00;4.53;;;1.30;99.90;;;;;;5012022;28;20305;-59
2021/01/27 01:32:39;;;;;;;5.55;4.50;;;1.30;99.90;;;;;;5011983;28;20296;-59
2021/01/27 01:35:07;;;;;;;5.07;4.03;;;1.20;99.90;;;;;;5011995;28;20241;-59
2021/01/27 01:37:35;;;;;;;5.43;4.35;;;1.10;99.90;;;;;;5011862;28;20652;-60
2021/01/27 01:40:03;;;;;;;5.87;4.43;;;1.10;99.90;;;;;;5011853;28;20300;-60
2021/01/27 01:42:30;;;;;;;6.85;4.38;;;1.10;99.90;;;;;;5011844;28;20593;-58
2021/01/27 01:44:59;;;;;;;6.60;4.87;;;1.10;99.90;;;;;;5011974;28;20333;-59
2021/01/27 01:47:26;;;;;;;7.57;4.50;;;1.00;99.90;;;;;;5011879;28;20293;-58
2021/01/27 01:49:54;;;;;;;6.53;4.13;;;1.00;99.90;;;;;;5011896;28;20217;-58
2021/01/27 01:52:22;;;;;;;4.90;4.20;;;1.00;99.90;;;;;;5011950;28;20245;-59
2021/01/27 01:54:54;;;;;;;4.33;3.83;;;1.00;99.90;;;;;;5011995;28;20292;-59
2021/01/27 01:57:26;;;;;;;4.63;3.93;;;1.10;99.90;;;;;;5015915;28;20712;-59
2021/01/27 01:59:58;;;;;;;5.05;4.20;;;1.10;99.90;;;;;;5015400;28;20241;-58
2021/01/27 02:02:26;;;;;;;5.32;4.65;;;1.00;99.90;;;;;;5015543;28;20253;-58
2021/01/27 02:04:59;;;;;;;6.43;4.43;;;1.00;99.90;;;;;;5015595;28;20229;-58
2021/01/27 02:07:27;;;;;;;7.63;4.53;;;0.90;99.90;;;;;;5015660;28;20209;-59
2021/01/27 02:09:54;;;;;;;5.83;4.20;;;0.90;99.90;;;;;;5015649;28;20205;-57
2021/01/27 02:12:47;;;;;;;5.43;4.30;;;0.90;99.90;;;;;;5015575;28;20240;-58
2021/01/27 02:15:41;;;;;;;4.87;4.40;;;0.90;99.90;;;;;;5017862;28;20241;-57
2021/01/27 02:18:22;;;;;;;6.32;3.67;;;0.90;99.90;;;;;;5015544;28;20459;-57
2021/01/27 02:21:21;;;;;;;6.30;4.10;;;0.80;99.90;;;;;;5015636;28;20219;-58
2021/01/27 02:24:27;;;;;;;4.97;4.10;;;0.80;99.90;;;;;;5015287;28;20690;-56
2021/01/27 02:27:09;;;;;;;4.07;3.67;;;0.80;99.90;;;;;;5019916;28;20292;-56
2021/01/27 02:29:54;;;;;;;4.82;4.00;;;0.70;99.90;;;;;;5015177;28;20416;-58
2021/01/27 02:32:42;;;;;;;6.90;4.10;;;0.80;99.90;;;;;;5015027;28;20627;-57
2021/01/27 02:35:14;;;;;;;4.40;4.00;;;0.70;99.90;;;;;;5015081;28;20633;-58
2021/01/27 02:37:47;;;;;;;4.27;3.83;;;0.70;99.90;;;;;;5015108;28;20255;-55
2021/01/27 02:40:19;;;;;;;5.50;4.27;;;0.70;99.90;;;;;;5015485;28;20306;-58
2021/01/27 02:42:55;;;;;;;4.37;3.97;;;0.70;99.90;;;;;;5014923;28;20649;-55
2021/01/27 02:45:27;;;;;;;4.13;3.72;;;0.70;99.90;;;;;;5014928;28;20225;-58
2021/01/27 02:47:59;;;;;;;7.47;4.53;;;0.70;99.90;;;;;;5014764;28;20209;-58
2021/01/27 02:50:32;;;;;;;4.65;3.60;;;0.60;99.90;;;;;;5014547;28;20265;-56
2021/01/27 02:53:05;;;;;;;6.73;4.00;;;0.60;99.90;;;;;;5014687;28;20763;-53
2021/01/27 02:55:36;;;;;;;5.57;4.25;;;0.50;99.90;;;;;;5014882;28;20229;-50
2021/01/27 02:58:10;;;;;;;6.18;3.95;;;0.40;99.90;;;;;;5042796;22;20241;-57
2021/01/27 03:00:42;;;;;;;8.13;4.50;;;0.40;99.90;;;;;;5014673;28;20304;-55
2021/01/27 03:03:16;;;;;;;5.65;4.63;;;0.30;99.90;;;;;;5014531;28;20350;-52
2021/01/27 03:05:47;;;;;;;5.60;3.85;;;0.20;99.90;;;;;;5013883;28;20238;-55
2021/01/27 03:08:18;;;;;;;6.80;4.47;;;0.10;99.90;;;;;;5014217;28;20251;-56
2021/01/27 03:10:52;;;;;;;4.57;4.00;;;0.10;99.90;;;;;;5014395;28;20209;-52
2021/01/27 03:13:20;;;;;;;4.77;4.17;;;0.00;99.90;;;;;;5014143;28;20264;-53
2021/01/27 03:15:47;;;;;;;7.20;5.22;;;-0.10;99.90;;;;;;5014054;28;20213;-55
2021/01/27 03:18:23;;;;;;;5.83;4.60;;;-0.10;99.90;;;;;;5014015;28;20647;-52
2021/01/27 03:20:56;;;;;;;12.68;6.45;;;-0.10;99.90;;;;;;5014220;28;20237;-57
2021/01/27 03:23:33;;;;;;;9.65;5.60;;;-0.20;99.90;;;;;;5014173;28;20215;-54
2021/01/27 03:26:06;;;;;;;9.18;4.90;;;-0.20;99.90;;;;;;5013849;28;20700;-57
2021/01/27 03:28:38;;;;;;;8.60;5.10;;;-0.20;99.90;;;;;;5013818;28;20209;-54
2021/01/27 03:31:06;;;;;;;5.80;4.73;;;-0.20;99.90;;;;;;5013849;28;20248;-55
2021/01/27 03:33:39;;;;;;;5.60;4.60;;;-0.20;99.90;;;;;;5013952;28;20209;-55
2021/01/27 03:36:10;;;;;;;6.50;3.97;;;-0.10;99.90;;;;;;5013876;28;20297;-53
2021/01/27 03:38:40;;;;;;;4.40;3.80;;;-0.10;99.90;;;;;;5013717;28;20205;-54
2021/01/27 03:41:14;;;;;;;4.77;3.50;;;-0.10;99.90;;;;;;5014194;28;20310;-53
2021/01/27 03:43:46;;;;;;;3.70;3.40;;;0.00;99.90;;;;;;5013700;28;20320;-56
2021/01/27 03:46:19;;;;;;;3.37;3.03;;;0.00;99.90;;;;;;5013641;28;20312;-57
2021/01/27 03:48:51;;;;;;;4.20;3.80;;;0.10;99.90;;;;;;5013657;28;20213;-58
2021/01/27 03:51:20;;;;;;;4.50;4.10;;;0.10;99.90;;;;;;5013518;28;20228;-56
2021/01/27 03:53:47;;;;;;;7.20;5.13;;;0.10;99.90;;;;;;5013668;28;20229;-57
2021/01/27 03:56:21;;;;;;;4.85;3.85;;;0.10;99.90;;;;;;5013338;28;20275;-57
2021/01/27 03:58:49;;;;;;;5.30;4.63;;;0.10;99.90;;;;;;5013367;28;20319;-54
2021/01/27 04:01:18;;;;;;;5.57;5.07;;;0.10;99.90;;;;;;5013365;28;20300;-54
2021/01/27 04:03:47;;;;;;;4.22;3.83;;;0.10;99.90;;;;;;5013234;28;20292;-57
2021/01/27 04:06:14;;;;;;;14.23;8.10;;;0.20;99.90;;;;;;5013266;28;20755;-55
2021/01/27 04:08:42;;;;;;;9.50;6.70;;;0.20;99.90;;;;;;5013135;28;20209;-56
2021/01/27 04:11:09;;;;;;;18.30;11.95;;;0.30;99.90;;;;;;5013351;28;20236;-55
2021/01/27 04:13:36;;;;;;;8.95;6.68;;;0.30;99.90;;;;;;5013083;28;20236;-55
2021/01/27 04:16:04;;;;;;;6.03;5.43;;;0.30;99.90;;;;;;5013481;28;20240;-54
2021/01/27 04:18:31;;;;;;;9.83;4.50;;;0.40;99.90;;;;;;5012312;28;20288;-55
2021/01/27 04:20:58;;;;;;;7.03;4.10;;;0.40;99.90;;;;;;5013434;28;20307;-58
2021/01/27 04:23:25;;;;;;;8.20;4.40;;;0.40;99.90;;;;;;5013269;28;20240;-58
2021/01/27 04:25:53;;;;;;;7.03;5.00;;;0.40;99.90;;;;;;5012862;28;20708;-54
2021/01/27 04:28:20;;;;;;;7.40;4.73;;;0.30;99.90;;;;;;5012905;28;20272;-56
2021/01/27 04:33:31;;;;;;;5.35;4.55;;;0.20;99.90;;;;;;4953309;29;20219;-53
2021/01/27 04:35:58;;;;;;;13.17;8.53;;;0.20;99.90;;;;;;4954644;29;20301;-54
2021/01/27 04:38:25;;;;;;;5.63;4.55;;;0.20;99.90;;;;;;4954324;29;20710;-53
2021/01/27 04:40:56;;;;;;;4.93;4.17;;;0.10;99.90;;;;;;4954586;29;20215;-55
2021/01/27 04:43:28;;;;;;;6.45;5.85;;;0.00;99.90;;;;;;4954279;29;20741;-55
2021/01/27 04:46:01;;;;;;;6.03;5.10;;;0.00;99.90;;;;;;4954284;29;20286;-57
2021/01/27 04:48:36;;;;;;;6.40;5.43;;;-0.10;99.90;;;;;;4954518;28;20235;-55
2021/01/27 04:51:09;;;;;;;8.03;6.13;;;-0.10;99.90;;;;;;4954265;29;20246;-55
2021/01/27 04:53:50;;;;;;;8.47;5.10;;;-0.10;99.90;;;;;;4954270;29;20294;-53
2021/01/27 04:56:59;;;;;;;16.42;10.35;;;-0.10;99.90;;;;;;4954432;29;20203;-52
2021/01/27 04:59:51;;;;;;;30.27;15.63;;;0.00;99.90;;;;;;4953916;28;20299;-59
2021/01/27 05:02:35;;;;;;;20.33;11.98;;;0.10;99.90;;;;;;4944130;29;20305;-54
2021/01/27 05:05:07;;;;;;;17.17;10.20;;;0.10;99.90;;;;;;4953993;28;20217;-55
2021/01/27 05:07:54;;;;;;;12.90;7.38;;;0.10;99.90;;;;;;4953991;28;20245;-56
2021/01/27 05:10:25;;;;;;;12.85;9.98;;;0.00;99.90;;;;;;4953858;28;20305;-56
2021/01/27 05:12:57;;;;;;;7.07;6.20;;;-0.10;99.90;;;;;;4953942;29;20207;-53
2021/01/27 05:15:24;;;;;;;8.40;5.85;;;-0.10;99.90;;;;;;4953961;29;20247;-54
2021/01/27 05:17:53;;;;;;;9.68;7.82;;;-0.10;99.90;;;;;;4953956;29;20212;-53
2021/01/27 05:20:21;;;;;;;6.00;4.70;;;-0.20;99.90;;;;;;4953619;29;20221;-57
2021/01/27 05:22:49;;;;;;;6.80;6.20;;;-0.10;99.90;;;;;;4953816;28;20277;-53
2021/01/27 05:25:27;;;;;;;5.47;4.20;;;-0.10;99.90;;;;;;4953574;28;20298;-56
2021/01/27 05:27:59;;;;;;;6.20;4.65;;;-0.10;99.90;;;;;;4953714;29;20210;-56
2021/01/27 05:30:30;;;;;;;7.03;5.53;;;0.00;99.90;;;;;;4956703;28;20221;-58
2021/01/27 05:32:58;;;;;;;6.13;4.63;;;0.10;99.90;;;;;;4957652;29;20242;-56
2021/01/27 05:35:31;;;;;;;5.73;4.43;;;0.10;99.90;;;;;;4957664;29;20745;-55
2021/01/27 05:38:00;;;;;;;8.20;5.13;;;0.10;99.90;;;;;;4957998;28;20298;-57
2021/01/27 05:40:32;;;;;;;5.63;5.05;;;0.00;99.90;;;;;;4957828;29;20286;-57
2021/01/27 05:43:12;;;;;;;7.63;4.97;;;0.00;99.90;;;;;;4957736;29;20222;-55
2021/01/27 05:45:42;;;;;;;13.07;7.55;;;-0.10;99.90;;;;;;4957585;28;20246;-52
2021/01/27 05:48:28;;;;;;;5.37;4.70;;;-0.10;99.90;;;;;;4957466;28;20211;-54
2021/01/27 05:51:13;;;;;;;6.00;5.10;;;-0.20;99.90;;;;;;4957596;29;20227;-54
2021/01/27 05:53:40;;;;;;;5.90;4.57;;;-0.20;99.90;;;;;;4957611;29;20554;-57
2021/01/27 05:56:13;;;;;;;6.85;4.25;;;-0.30;99.90;;;;;;4957269;28;20346;-56
2021/01/27 05:58:46;;;;;;;6.43;4.65;;;-0.20;99.90;;;;;;4957495;29;20526;-51
2021/01/27 06:01:16;;;;;;;5.20;4.50;;;-0.20;99.90;;;;;;4957330;29;20752;-53
2021/01/27 06:03:52;;;;;;;5.80;5.00;;;-0.20;99.90;;;;;;4957434;29;20218;-51
2021/01/27 06:06:20;;;;;;;6.40;5.07;;;-0.20;99.90;;;;;;4957394;28;20363;-51
2021/01/27 06:08:52;;;;;;;9.60;5.95;;;-0.20;99.90;;;;;;4957117;28;20245;-53
2021/01/27 06:11:19;;;;;;;7.40;4.90;;;-0.30;99.90;;;;;;4957253;28;20246;-53
2021/01/27 06:13:49;;;;;;;6.27;4.97;;;-0.30;99.90;;;;;;4957089;29;20211;-56
2021/01/27 06:16:20;;;;;;;8.25;5.60;;;-0.30;99.90;;;;;;4957057;29;20254;-55
2021/01/27 06:18:48;;;;;;;5.97;4.67;;;-0.30;99.90;;;;;;4957122;29;20234;-52
2021/01/27 06:21:53;;;;;;;6.03;5.50;;;-0.30;99.90;;;;;;4958999;28;20400;-52
2021/01/27 06:24:53;;;;;;;10.00;8.33;;;-0.30;99.90;;;;;;4956756;29;20250;-55
2021/01/27 06:27:43;;;;;;;12.15;7.25;;;-0.30;99.90;;;;;;4956853;29;20236;-54
2021/01/27 06:30:45;;;;;;;8.88;7.97;;;-0.20;99.90;;;;;;4957055;28;20298;-55
2021/01/27 06:33:36;;;;;;;6.53;5.93;;;-0.20;99.90;;;;;;4956715;29;20265;-54
2021/01/27 06:36:25;;;;;;;8.57;7.50;;;-0.20;99.90;;;;;;4956558;29;20219;-53
2021/01/27 06:39:14;;;;;;;8.05;6.68;;;-0.20;99.90;;;;;;4956723;28;20235;-52
2021/01/27 06:41:56;;;;;;;9.70;6.77;;;-0.20;99.90;;;;;;4955988;28;20592;-56
2021/01/27 06:44:56;;;;;;;4.73;4.33;;;-0.30;99.90;;;;;;4956482;29;20215;-55
2021/01/27 06:47:52;;;;;;;6.93;4.43;;;-0.30;99.90;;;;;;4951659;29;20419;-51
2021/01/27 06:50:55;;;;;;;5.70;5.10;;;-0.30;99.90;;;;;;4956411;29;20666;-55
2021/01/27 06:53:59;;;;;;;7.10;4.60;;;-0.40;99.90;;;;;;4956183;28;20633;-54
2021/01/27 06:56:41;;;;;;;4.40;3.97;;;-0.30;99.90;;;;;;4956349;29;20290;-53
2021/01/27 06:59:36;;;;;;;4.80;4.30;;;-0.30;99.90;;;;;;4956450;28;20302;-58
2021/01/27 07:02:39;;;;;;;3.83;3.47;;;-0.40;99.90;;;;;;4956178;29;20573;-59
2021/01/27 07:05:41;;;;;;;6.70;4.87;;;-0.30;99.90;;;;;;4956225;29;20725;-57
2021/01/27 07:08:15;;;;;;;6.03;4.30;;;-0.30;99.90;;;;;;4933502;29;20262;-58
2021/01/27 07:11:03;;;;;;;8.13;5.90;;;-0.40;99.90;;;;;;4956368;29;20305;-57
2021/01/27 07:14:19;;;;;;;56.35;32.22;;;-0.40;99.90;;;;;;4956348;29;20251;-57
2021/01/27 07:17:00;;;;;;;16.63;10.90;;;-0.30;99.90;;;;;;4955820;29;20670;-57
2021/01/27 07:19:56;;;;;;;15.47;10.20;;;-0.30;99.90;;;;;;4956106;29;20686;-59
2021/01/27 07:22:30;;;;;;;28.27;17.47;;;-0.20;99.90;;;;;;4955807;29;20223;-58
2021/01/27 07:25:07;;;;;;;27.07;13.43;;;-0.10;99.90;;;;;;4956060;29;20634;-58
2021/01/27 07:27:40;;;;;;;14.10;8.55;;;0.00;99.90;;;;;;4958058;28;20227;-59
2021/01/27 07:30:12;;;;;;;45.58;27.10;;;0.10;99.90;;;;;;4955628;29;20670;-59
2021/01/27 07:32:43;;;;;;;25.17;15.98;;;0.20;99.90;;;;;;4955742;29;20331;-54
2021/01/27 07:35:17;;;;;;;12.77;8.38;;;0.40;99.90;;;;;;4955723;29;20211;-58
2021/01/27 07:37:49;;;;;;;24.07;15.03;;;0.50;99.90;;;;;;4955680;29;20211;-58
2021/01/27 07:40:21;;;;;;;19.30;11.93;;;0.50;99.90;;;;;;4955475;29;20211;-58
2021/01/27 07:42:53;;;;;;;22.67;15.07;;;0.50;99.90;;;;;;4955677;29;20227;-57
2021/01/27 07:45:23;;;;;;;6.97;5.57;;;0.50;99.90;;;;;;4955468;29;20294;-56
2021/01/27 07:48:02;;;;;;;4.97;4.40;;;0.50;99.90;;;;;;4955458;29;20317;-59
2021/01/27 07:50:31;;;;;;;4.77;4.33;;;0.50;99.90;;;;;;4956318;29;20215;-59
2021/01/27 07:53:21;;;;;;;7.40;4.97;;;0.50;99.90;;;;;;4954172;28;20254;-58
2021/01/27 07:56:02;;;;;;;5.40;4.67;;;0.50;99.90;;;;;;4951549;29;20207;-55
2021/01/27 07:58:34;;;;;;;7.37;5.43;;;0.60;99.90;;;;;;4955064;28;20294;-56
2021/01/27 08:01:08;;;;;;;8.67;7.23;;;0.80;99.90;;;;;;4955044;29;20220;-58
2021/01/27 08:03:41;;;;;;;7.82;7.03;;;0.80;99.90;;;;;;4954614;29;20226;-59
2021/01/27 08:06:13;;;;;;;11.10;4.22;;;1.00;99.90;;;;;;4954834;29;20227;-56
2021/01/27 08:08:48;;;;;;;4.90;4.50;;;1.10;99.90;;;;;;4954957;29;20215;-56
2021/01/27 08:11:19;;;;;;;4.70;4.30;;;1.20;99.90;;;;;;4954618;28;20326;-57
2021/01/27 08:13:47;;;;;;;9.43;7.20;;;1.40;99.90;;;;;;4954907;29;20258;-56
2021/01/27 08:16:32;;;;;;;5.90;4.35;;;1.50;99.90;;;;;;4954886;29;20207;-55
2021/01/27 08:19:28;;;;;;;6.23;3.77;;;1.80;99.60;;;;;;4954682;29;20298;-55
2021/01/27 08:22:00;;;;;;;5.23;4.60;;;1.90;99.40;;;;;;4954629;29;20249;-58
2021/01/27 08:24:53;;;;;;;12.05;10.73;;;2.00;99.20;;;;;;4954437;29;20215;-58
2021/01/27 08:27:35;;;;;;;6.15;4.93;;;2.10;98.90;;;;;;4954338;28;20575;-57
2021/01/27 08:30:25;;;;;;;5.57;4.40;;;2.20;98.70;;;;;;4954656;29;20632;-59
2021/01/27 08:33:25;;;;;;;5.03;4.43;;;2.20;98.80;;;;;;4954315;28;20330;-59
2021/01/27 08:35:59;;;;;;;9.40;6.93;;;2.30;98.80;;;;;;4930057;28;20713;-59
2021/01/27 08:38:29;;;;;;;8.17;5.60;;;2.30;98.70;;;;;;4954455;29;20211;-59
2021/01/27 08:40:56;;;;;;;6.77;4.90;;;2.40;98.60;;;;;;4954203;29;20295;-59
2021/01/27 08:43:28;;;;;;;7.15;5.32;;;2.50;98.40;;;;;;4954306;29;20698;-55
2021/01/27 08:45:55;;;;;;;8.57;4.78;;;2.60;98.30;;;;;;4954406;28;20318;-55
2021/01/27 08:48:46;;;;;;;8.63;6.43;;;2.70;98.10;;;;;;4954522;28;20219;-59
2021/01/27 08:51:48;;;;;;;5.90;4.82;;;2.90;97.70;;;;;;4954094;29;20238;-60
2021/01/27 08:54:47;;;;;;;7.75;5.22;;;3.00;97.60;;;;;;4953966;28;20737;-59
2021/01/27 08:57:24;;;;;;;6.38;5.00;;;3.00;97.50;;;;;;4954573;28;20266;-60
2021/01/27 08:59:59;;;;;;;6.10;4.45;;;3.20;97.40;;;;;;4954082;29;20298;-58
2021/01/27 09:02:54;;;;;;;6.15;4.05;;;3.20;97.30;;;;;;4954124;28;20516;-59
2021/01/27 09:05:38;;;;;;;10.43;5.93;;;3.30;96.90;;;;;;4953780;28;20215;-55
2021/01/27 09:08:29;;;;;;;7.13;5.13;;;3.30;97.00;;;;;;4954022;28;20234;-59
2021/01/27 09:10:59;;;;;;;7.32;5.97;;;3.40;96.70;;;;;;4954242;28;20263;-59
2021/01/27 09:13:35;;;;;;;6.90;4.50;;;3.40;96.90;;;;;;4954318;29;20238;-60
2021/01/27 09:16:07;;;;;;;6.18;5.57;;;3.50;96.70;;;;;;4953857;28;20234;-58
2021/01/27 09:18:35;;;;;;;4.97;4.45;;;3.50;96.70;;;;;;4954505;29;20226;-60
2021/01/27 09:21:10;;;;;;;6.20;5.60;;;3.60;96.60;;;;;;4954337;29;20278;-56
2021/01/27 09:23:40;;;;;;;7.13;5.10;;;3.80;96.50;;;;;;4954282;29;20290;-60
2021/01/27 09:26:15;;;;;;;6.00;3.97;;;4.00;96.10;;;;;;4954721;28;20235;-55
2021/01/27 09:28:43;;;;;;;5.20;4.50;;;4.10;95.50;;;;;;4953621;29;20604;-58
2021/01/27 09:31:15;;;;;;;6.43;3.95;;;4.10;95.60;;;;;;4953657;29;20285;-55
2021/01/27 09:33:42;;;;;;;4.95;4.03;;;4.10;95.50;;;;;;4954294;28;20211;-59
2021/01/27 09:36:14;;;;;;;4.65;4.25;;;4.20;95.50;;;;;;4953915;28;20254;-59
2021/01/27 09:38:42;;;;;;;6.65;4.75;;;4.30;95.40;;;;;;4953994;29;20722;-60
2021/01/27 09:41:12;;;;;;;5.72;4.32;;;4.40;95.20;;;;;;4953863;29;20217;-60
2021/01/27 09:46:39;;;;;;;5.05;3.83;;;4.40;94.70;;;;;;4932925;29;20242;-60
2021/01/27 09:49:10;;;;;;;4.65;4.10;;;4.10;94.80;;;;;;4934719;29;20219;-59
2021/01/27 09:51:39;;;;;;;4.40;3.83;;;4.10;95.10;;;;;;4934389;29;20239;-56
2021/01/27 09:54:08;;;;;;;4.55;4.15;;;4.10;95.10;;;;;;4934985;29;20279;-57
2021/01/27 09:56:35;;;;;;;6.00;4.03;;;4.10;95.00;;;;;;4934740;29;20259;-59
2021/01/27 09:59:03;;;;;;;5.45;4.38;;;4.10;94.60;;;;;;4934426;29;20625;-58
2021/01/27 10:01:33;;;;;;;10.55;7.22;;;4.10;94.70;;;;;;4934510;29;20631;-59
2021/01/27 10:04:08;;;;;;;5.15;4.65;;;4.00;94.70;;;;;;4934552;29;20240;-60
2021/01/27 10:06:39;;;;;;;10.25;4.80;;;4.00;94.90;;;;;;4934449;29;20239;-58
2021/01/27 10:09:15;;;;;;;6.82;4.43;;;4.20;94.80;;;;;;4934387;29;20667;-60
2021/01/27 10:11:43;;;;;;;19.35;11.20;;;4.20;94.40;;;;;;4934351;29;20208;-60
2021/01/27 10:14:13;;;;;;;14.20;9.57;;;4.20;94.50;;;;;;4934480;29;20391;-59
2021/01/27 10:16:49;;;;;;;6.22;4.80;;;4.30;94.50;;;;;;4936081;29;20695;-57
2021/01/27 10:19:23;;;;;;;5.30;4.45;;;4.40;94.20;;;;;;4937892;29;20219;-59
2021/01/27 10:21:52;;;;;;;4.15;3.78;;;4.50;94.00;;;;;;4937793;29;20212;-56
2021/01/27 10:24:49;;;;;;;4.38;3.97;;;4.50;93.70;;;;;;4937899;29;20587;-57
2021/01/27 10:27:22;;;;;;;5.82;4.25;;;4.60;93.60;;;;;;4937364;29;20271;-58
2021/01/27 10:29:50;;;;;;;3.47;3.17;;;4.60;93.80;;;;;;4937793;29;20295;-57
2021/01/27 10:32:24;;;;;;;5.43;4.38;;;4.70;93.50;;;;;;4937780;29;20212;-59
2021/01/27 10:34:52;;;;;;;3.13;2.83;;;4.70;93.50;;;;;;4937696;29;20294;-59
2021/01/27 10:37:33;;;;;;;6.22;3.22;;;4.70;93.20;;;;;;4937507;29;20584;-57
2021/01/27 10:40:14;;;;;;;3.25;2.88;;;4.50;93.40;;;;;;4937575;29;20215;-58
2021/01/27 10:42:45;;;;;;;3.30;2.90;;;4.40;93.20;;;;;;4937286;29;20211;-59
2021/01/27 10:45:25;;;;;;;3.70;2.83;;;4.20;93.50;;;;;;4937068;29;20262;-59
2021/01/27 10:47:59;;;;;;;3.17;2.87;;;4.10;93.80;;;;;;4937088;29;20235;-58
2021/01/27 10:50:26;;;;;;;4.67;2.87;;;3.90;94.00;;;;;;4937208;29;20576;-58
2021/01/27 10:53:05;;;;;;;5.97;3.45;;;3.80;94.20;;;;;;4937188;29;20324;-55
2021/01/27 10:55:36;;;;;;;6.20;3.60;;;3.80;94.50;;;;;;5074980;23;20256;-57
2021/01/27 10:58:08;;;;;;;3.60;2.90;;;3.70;94.60;;;;;;4994908;28;20370;-57
2021/01/27 11:00:36;;;;;;;4.20;3.80;;;3.70;94.50;;;;;;4994813;28;20205;-58
2021/01/27 11:03:04;;;;;;;3.10;2.80;;;3.70;94.90;;;;;;4994596;28;20242;-56
2021/01/27 11:05:31;;;;;;;2.97;2.65;;;3.60;94.80;;;;;;4994882;28;20214;-57
2021/01/27 11:07:59;;;;;;;4.60;3.55;;;3.60;95.00;;;;;;4994752;28;20337;-59
2021/01/27 11:10:27;;;;;;;3.85;3.40;;;3.60;95.00;;;;;;4994742;28;20297;-58
2021/01/27 11:12:56;;;;;;;3.15;2.80;;;3.60;95.20;;;;;;4994339;28;20284;-54
2021/01/27 11:15:23;;;;;;;3.17;2.87;;;3.50;95.10;;;;;;4994600;28;20206;-55
2021/01/27 11:17:50;;;;;;;3.45;3.15;;;3.50;95.00;;;;;;4994527;28;20206;-59
2021/01/27 11:20:19;;;;;;;2.80;2.60;;;3.50;95.20;;;;;;4994473;28;20668;-55
2021/01/27 11:22:47;;;;;;;4.18;3.05;;;3.60;95.30;;;;;;4995678;28;20256;-58
2021/01/27 11:25:16;;;;;;;4.25;2.95;;;3.60;95.30;;;;;;4995300;28;20270;-56
2021/01/27 11:27:44;;;;;;;5.78;3.13;;;3.70;95.20;;;;;;4994764;28;20353;-59
2021/01/27 11:30:16;;;;;;;5.78;3.15;;;3.70;95.20;;;;;;4995765;28;20288;-60
2021/01/27 11:32:43;;;;;;;4.37;3.40;;;3.70;95.20;;;;;;4995594;28;20210;-55
2021/01/27 11:35:11;;;;;;;4.38;3.00;;;3.70;95.30;;;;;;4994182;28;20206;-57
2021/01/27 11:37:38;;;;;;;4.53;2.90;;;3.70;95.30;;;;;;4993944;28;20297;-57
2021/01/27 11:40:07;;;;;;;3.70;3.23;;;3.80;95.40;;;;;;4994242;28;20256;-58
2021/01/27 11:42:34;;;;;;;3.28;2.75;;;3.90;95.50;;;;;;4994330;28;20676;-59
2021/01/27 11:45:01;;;;;;;4.70;3.75;;;4.10;95.30;;;;;;4994095;28;20557;-59
2021/01/27 11:47:29;;;;;;;3.03;2.42;;;4.20;95.20;;;;;;4993887;28;20261;-59
2021/01/27 11:49:56;;;;;;;3.20;2.30;;;4.30;95.10;;;;;;4994001;28;20214;-58
2021/01/27 11:52:23;;;;;;;3.03;2.60;;;4.40;95.20;;;;;;4993825;28;20210;-58
2021/01/27 11:54:50;;;;;;;2.97;2.78;;;4.40;95.40;;;;;;4993813;28;20333;-58
2021/01/27 11:57:18;;;;;;;3.00;2.53;;;4.40;95.30;;;;;;4994044;28;20664;-59
2021/01/27 11:59:45;;;;;;;3.72;2.83;;;4.30;95.60;;;;;;4993838;28;20210;-58
2021/01/27 12:02:13;;;;;;;2.97;2.67;;;4.30;95.80;;;;;;4993574;28;20672;-57
2021/01/27 12:04:41;;;;;;;4.03;2.50;;;4.30;95.80;;;;;;4993697;28;20210;-56
2021/01/27 12:07:08;;;;;;;3.67;2.38;;;4.30;96.00;;;;;;4993105;28;20230;-54
2021/01/27 12:09:36;;;;;;;3.03;2.80;;;4.20;96.20;;;;;;4993486;28;20210;-58
2021/01/27 12:12:04;;;;;;;5.10;2.80;;;4.10;96.50;;;;;;4993634;28;20300;-57
2021/01/27 12:14:31;;;;;;;2.40;2.20;;;4.00;96.70;;;;;;4993894;28;20248;-57
2021/01/27 12:16:58;;;;;;;3.13;2.80;;;3.90;97.00;;;;;;4993375;28;20211;-56
2021/01/27 12:19:28;;;;;;;2.22;1.95;;;3.90;97.30;;;;;;4993377;28;20298;-58
2021/01/27 12:21:56;;;;;;;4.03;3.00;;;3.70;97.70;;;;;;4993157;28;20626;-58
2021/01/27 12:24:24;;;;;;;12.67;6.60;;;3.70;98.10;;;;;;4993322;28;20301;-58
2021/01/27 12:26:52;;;;;;;5.28;3.17;;;3.70;98.40;;;;;;4993133;28;20280;-59
2021/01/27 12:29:21;;;;;;;2.85;2.28;;;3.70;98.80;;;;;;4992935;28;20691;-56
2021/01/27 12:31:48;;;;;;;3.15;2.85;;;3.80;98.80;;;;;;4993021;28;20241;-60
2021/01/27 12:34:16;;;;;;;3.42;3.13;;;3.90;98.80;;;;;;4992908;28;20214;-59
2021/01/27 12:36:44;;;;;;;3.20;2.87;;;3.90;98.80;;;;;;4993211;28;20238;-59
2021/01/27 12:39:12;;;;;;;2.70;2.50;;;4.00;98.90;;;;;;4992668;28;20291;-60
2021/01/27 12:41:39;;;;;;;2.60;2.40;;;4.00;99.20;;;;;;4993596;28;20241;-60
2021/01/27 12:44:07;;;;;;;3.73;2.83;;;4.00;99.20;;;;;;4992757;28;20684;-60
2021/01/27 12:46:35;;;;;;;3.17;2.23;;;4.00;99.40;;;;;;4992700;28;20697;-58
2021/01/27 12:49:02;;;;;;;2.60;2.40;;;3.90;99.50;;;;;;4992961;28;20217;-58
2021/01/27 12:51:29;;;;;;;2.60;2.40;;;3.90;99.60;;;;;;4992864;28;20242;-59
2021/01/27 12:53:57;;;;;;;2.40;2.20;;;3.90;99.70;;;;;;4992669;28;20249;-61
2021/01/27 12:56:25;;;;;;;2.70;2.45;;;3.90;99.80;;;;;;4992360;28;20277;-58
2021/01/27 12:58:52;;;;;;;2.97;2.50;;;3.90;99.90;;;;;;4993045;28;20664;-60
2021/01/27 13:01:20;;;;;;;4.17;2.77;;;3.90;99.90;;;;;;4992493;28;20403;-59
2021/01/27 13:03:48;;;;;;;2.30;2.10;;;3.90;99.90;;;;;;4992487;28;20205;-59
2021/01/27 13:06:15;;;;;;;2.73;2.40;;;4.00;99.90;;;;;;4992733;28;20320;-59
2021/01/27 13:08:43;;;;;;;2.57;2.37;;;4.10;99.90;;;;;;4992595;28;20202;-56
2021/01/27 13:11:10;;;;;;;7.15;2.90;;;4.30;99.90;;;;;;4992431;28;20225;-57
2021/01/27 13:13:38;;;;;;;3.43;2.80;;;4.40;99.80;;;;;;4992503;28;20234;-54
2021/01/27 13:16:05;;;;;;;3.75;2.60;;;4.50;99.70;;;;;;4992675;28;20309;-59
2021/01/27 13:18:32;;;;;;;4.05;3.20;;;4.50;99.60;;;;;;4992524;28;20212;-60
2021/01/27 13:21:01;;;;;;;6.85;2.90;;;4.50;99.60;;;;;;4992232;28;20348;-59
2021/01/27 13:23:28;;;;;;;3.25;2.85;;;4.40;99.70;;;;;;4992241;28;20241;-59
2021/01/27 13:25:55;;;;;;;4.45;2.72;;;4.30;99.70;;;;;;4992420;28;20293;-59
2021/01/27 13:28:22;;;;;;;2.97;2.78;;;4.20;99.80;;;;;;4992218;28;20230;-59
2021/01/27 13:30:50;;;;;;;3.27;2.97;;;4.10;99.90;;;;;;4992439;28;20214;-59